sensor_id;sensor_type;location;lat;lon;timestamp;P1;durP1;ratioP1;P2;durP2;ratioP2
6821;SDS011;3449;48.728;8.968;2023-04-24T00:01:59;0.70;;;0.50;;
6821;SDS011;3449;48.728;8.968;2023-04-24T00:04:25;3.10;;;1.23;;
6821;SDS011;3449;48.728;8.968;2023-04-24T00:06:54;1.90;;;0.67;;
6821;SDS011;3449;48.728;8.968;2023-04-24T00:09:22;4.00;;;1.03;;
6821;SDS011;3449;48.728;8.968;2023-04-24T00:11:49;2.20;;;0.60;;
6821;SDS011;3449;48.728;8.968;2023-04-24T00:14:16;0.80;;;0.80;;
6821;SDS011;3449;48.728;8.968;2023-04-24T00:16:43;4.67;;;0.80;;
6821;SDS011;3449;48.728;8.968;2023-04-24T00:19:09;1.43;;;0.77;;
6821;SDS011;3449;48.728;8.968;2023-04-24T00:21:37;1.70;;;0.60;;
6821;SDS011;3449;48.728;8.968;2023-04-24T00:24:06;2.87;;;0.80;;
6821;SDS011;3449;48.728;8.968;2023-04-24T00:26:34;0.60;;;0.60;;
6821;SDS011;3449;48.728;8.968;2023-04-24T00:29:01;1.40;;;0.90;;
6821;SDS011;3449;48.728;8.968;2023-04-24T00:31:27;0.73;;;0.70;;
6821;SDS011;3449;48.728;8.968;2023-04-24T00:33:54;0.77;;;0.77;;
6821;SDS011;3449;48.728;8.968;2023-04-24T00:36:21;0.60;;;0.60;;
6821;SDS011;3449;48.728;8.968;2023-04-24T00:38:48;2.20;;;0.60;;
6821;SDS011;3449;48.728;8.968;2023-04-24T00:41:16;1.93;;;0.90;;
6821;SDS011;3449;48.728;8.968;2023-04-24T00:43:43;0.63;;;0.63;;
6821;SDS011;3449;48.728;8.968;2023-04-24T00:46:10;0.70;;;0.70;;
6821;SDS011;3449;48.728;8.968;2023-04-24T00:48:38;0.80;;;0.77;;
6821;SDS011;3449;48.728;8.968;2023-04-24T00:51:05;0.50;;;0.40;;
6821;SDS011;3449;48.728;8.968;2023-04-24T00:53:32;0.90;;;0.50;;
6821;SDS011;3449;48.728;8.968;2023-04-24T00:55:59;2.87;;;0.60;;
6821;SDS011;3449;48.728;8.968;2023-04-24T00:58:28;0.70;;;0.70;;
6821;SDS011;3449;48.728;8.968;2023-04-24T01:00:55;0.73;;;0.73;;
6821;SDS011;3449;48.728;8.968;2023-04-24T01:03:24;1.93;;;1.27;;
6821;SDS011;3449;48.728;8.968;2023-04-24T01:05:52;1.20;;;0.80;;
6821;SDS011;3449;48.728;8.968;2023-04-24T01:08:21;0.50;;;0.50;;
6821;SDS011;3449;48.728;8.968;2023-04-24T01:10:49;2.10;;;0.60;;
6821;SDS011;3449;48.728;8.968;2023-04-24T01:13:18;2.00;;;0.80;;
6821;SDS011;3449;48.728;8.968;2023-04-24T01:15:47;0.60;;;0.50;;
6821;SDS011;3449;48.728;8.968;2023-04-24T01:18:14;1.13;;;0.60;;
6821;SDS011;3449;48.728;8.968;2023-04-24T01:20:42;0.70;;;0.70;;
6821;SDS011;3449;48.728;8.968;2023-04-24T01:23:13;2.20;;;0.67;;
6821;SDS011;3449;48.728;8.968;2023-04-24T01:25:40;0.67;;;0.60;;
6821;SDS011;3449;48.728;8.968;2023-04-24T01:28:07;1.13;;;0.80;;
6821;SDS011;3449;48.728;8.968;2023-04-24T01:30:34;0.70;;;0.70;;
6821;SDS011;3449;48.728;8.968;2023-04-24T01:33:01;0.60;;;0.60;;
6821;SDS011;3449;48.728;8.968;2023-04-24T01:35:28;1.53;;;0.80;;
6821;SDS011;3449;48.728;8.968;2023-04-24T01:37:55;0.60;;;0.60;;
6821;SDS011;3449;48.728;8.968;2023-04-24T01:40:23;0.93;;;0.90;;
6821;SDS011;3449;48.728;8.968;2023-04-24T01:42:50;0.97;;;0.70;;
6821;SDS011;3449;48.728;8.968;2023-04-24T01:45:18;0.50;;;0.43;;
6821;SDS011;3449;48.728;8.968;2023-04-24T01:47:45;1.90;;;0.90;;
6821;SDS011;3449;48.728;8.968;2023-04-24T01:50:14;0.43;;;0.43;;
6821;SDS011;3449;48.728;8.968;2023-04-24T01:52:41;1.10;;;0.57;;
6821;SDS011;3449;48.728;8.968;2023-04-24T01:55:08;0.53;;;0.53;;
6821;SDS011;3449;48.728;8.968;2023-04-24T01:57:37;3.83;;;1.20;;
6821;SDS011;3449;48.728;8.968;2023-04-24T02:00:05;2.00;;;0.93;;
6821;SDS011;3449;48.728;8.968;2023-04-24T02:02:33;2.70;;;0.77;;
6821;SDS011;3449;48.728;8.968;2023-04-24T02:05:00;1.63;;;1.03;;
6821;SDS011;3449;48.728;8.968;2023-04-24T02:07:27;0.80;;;0.80;;
6821;SDS011;3449;48.728;8.968;2023-04-24T02:09:54;3.33;;;0.70;;
6821;SDS011;3449;48.728;8.968;2023-04-24T02:12:21;3.37;;;0.77;;
6821;SDS011;3449;48.728;8.968;2023-04-24T02:14:49;0.70;;;0.70;;
6821;SDS011;3449;48.728;8.968;2023-04-24T02:17:16;2.10;;;1.10;;
6821;SDS011;3449;48.728;8.968;2023-04-24T02:19:44;0.70;;;0.70;;
6821;SDS011;3449;48.728;8.968;2023-04-24T02:22:11;4.27;;;1.37;;
6821;SDS011;3449;48.728;8.968;2023-04-24T02:24:38;1.73;;;0.90;;
6821;SDS011;3449;48.728;8.968;2023-04-24T02:27:05;1.00;;;0.63;;
6821;SDS011;3449;48.728;8.968;2023-04-24T02:29:32;1.23;;;0.80;;
6821;SDS011;3449;48.728;8.968;2023-04-24T02:32:00;2.37;;;0.70;;
6821;SDS011;3449;48.728;8.968;2023-04-24T02:34:27;3.67;;;0.90;;
6821;SDS011;3449;48.728;8.968;2023-04-24T02:36:54;6.57;;;1.10;;
6821;SDS011;3449;48.728;8.968;2023-04-24T02:39:21;0.97;;;0.90;;
6821;SDS011;3449;48.728;8.968;2023-04-24T02:41:48;2.20;;;0.97;;
6821;SDS011;3449;48.728;8.968;2023-04-24T02:44:15;0.80;;;0.80;;
6821;SDS011;3449;48.728;8.968;2023-04-24T02:46:42;1.90;;;0.90;;
6821;SDS011;3449;48.728;8.968;2023-04-24T02:49:11;0.70;;;0.70;;
6821;SDS011;3449;48.728;8.968;2023-04-24T02:51:37;0.97;;;0.83;;
6821;SDS011;3449;48.728;8.968;2023-04-24T02:54:06;1.27;;;0.70;;
6821;SDS011;3449;48.728;8.968;2023-04-24T02:56:34;2.10;;;1.00;;
6821;SDS011;3449;48.728;8.968;2023-04-24T02:59:00;2.20;;;0.73;;
6821;SDS011;3449;48.728;8.968;2023-04-24T03:01:27;2.93;;;0.70;;
6821;SDS011;3449;48.728;8.968;2023-04-24T03:03:54;1.07;;;1.00;;
6821;SDS011;3449;48.728;8.968;2023-04-24T03:06:23;2.60;;;0.80;;
6821;SDS011;3449;48.728;8.968;2023-04-24T03:08:49;1.73;;;0.97;;
6821;SDS011;3449;48.728;8.968;2023-04-24T03:11:16;2.30;;;0.90;;
6821;SDS011;3449;48.728;8.968;2023-04-24T03:13:43;0.50;;;0.50;;
6821;SDS011;3449;48.728;8.968;2023-04-24T03:16:10;1.77;;;0.73;;
6821;SDS011;3449;48.728;8.968;2023-04-24T03:18:37;1.37;;;0.70;;
6821;SDS011;3449;48.728;8.968;2023-04-24T03:21:04;1.27;;;0.77;;
6821;SDS011;3449;48.728;8.968;2023-04-24T03:23:32;0.80;;;0.70;;
6821;SDS011;3449;48.728;8.968;2023-04-24T03:25:59;1.07;;;0.70;;
6821;SDS011;3449;48.728;8.968;2023-04-24T03:28:27;1.27;;;0.80;;
6821;SDS011;3449;48.728;8.968;2023-04-24T03:30:54;1.67;;;0.87;;
6821;SDS011;3449;48.728;8.968;2023-04-24T03:33:21;0.67;;;0.67;;
6821;SDS011;3449;48.728;8.968;2023-04-24T03:35:47;0.70;;;0.70;;
6821;SDS011;3449;48.728;8.968;2023-04-24T03:38:14;2.87;;;0.77;;
6821;SDS011;3449;48.728;8.968;2023-04-24T03:40:42;0.50;;;0.50;;
6821;SDS011;3449;48.728;8.968;2023-04-24T03:43:09;1.87;;;1.03;;
6821;SDS011;3449;48.728;8.968;2023-04-24T03:45:36;0.90;;;0.90;;
6821;SDS011;3449;48.728;8.968;2023-04-24T03:48:03;1.10;;;1.00;;
6821;SDS011;3449;48.728;8.968;2023-04-24T03:50:30;3.10;;;0.60;;
6821;SDS011;3449;48.728;8.968;2023-04-24T03:52:57;0.93;;;0.77;;
6821;SDS011;3449;48.728;8.968;2023-04-24T03:55:24;0.60;;;0.60;;
6821;SDS011;3449;48.728;8.968;2023-04-24T03:57:52;0.80;;;0.50;;
6821;SDS011;3449;48.728;8.968;2023-04-24T04:00:19;4.93;;;0.80;;
6821;SDS011;3449;48.728;8.968;2023-04-24T04:02:46;0.83;;;0.67;;
6821;SDS011;3449;48.728;8.968;2023-04-24T04:05:13;0.90;;;0.70;;
6821;SDS011;3449;48.728;8.968;2023-04-24T04:07:40;0.70;;;0.70;;
6821;SDS011;3449;48.728;8.968;2023-04-24T04:10:07;0.70;;;0.70;;
6821;SDS011;3449;48.728;8.968;2023-04-24T04:12:34;2.60;;;0.90;;
6821;SDS011;3449;48.728;8.968;2023-04-24T04:15:03;0.60;;;0.50;;
6821;SDS011;3449;48.728;8.968;2023-04-24T04:17:31;2.67;;;1.00;;
6821;SDS011;3449;48.728;8.968;2023-04-24T04:19:57;1.67;;;0.83;;
6821;SDS011;3449;48.728;8.968;2023-04-24T04:22:25;0.90;;;0.90;;
6821;SDS011;3449;48.728;8.968;2023-04-24T04:24:51;1.00;;;0.90;;
6821;SDS011;3449;48.728;8.968;2023-04-24T04:27:18;2.03;;;1.50;;
6821;SDS011;3449;48.728;8.968;2023-04-24T04:29:46;1.33;;;1.00;;
6821;SDS011;3449;48.728;8.968;2023-04-24T04:32:14;1.17;;;0.70;;
6821;SDS011;3449;48.728;8.968;2023-04-24T04:34:42;2.67;;;1.20;;
6821;SDS011;3449;48.728;8.968;2023-04-24T04:37:10;1.10;;;1.10;;
6821;SDS011;3449;48.728;8.968;2023-04-24T04:39:37;0.73;;;0.70;;
6821;SDS011;3449;48.728;8.968;2023-04-24T04:42:04;2.03;;;0.93;;
6821;SDS011;3449;48.728;8.968;2023-04-24T04:44:31;1.43;;;1.00;;
6821;SDS011;3449;48.728;8.968;2023-04-24T04:47:00;1.13;;;1.03;;
6821;SDS011;3449;48.728;8.968;2023-04-24T04:49:32;1.20;;;1.20;;
6821;SDS011;3449;48.728;8.968;2023-04-24T04:51:59;1.00;;;1.00;;
6821;SDS011;3449;48.728;8.968;2023-04-24T04:54:26;3.20;;;1.87;;
6821;SDS011;3449;48.728;8.968;2023-04-24T04:56:53;1.10;;;1.00;;
6821;SDS011;3449;48.728;8.968;2023-04-24T04:59:20;1.70;;;0.90;;
6821;SDS011;3449;48.728;8.968;2023-04-24T05:01:47;1.53;;;1.13;;
6821;SDS011;3449;48.728;8.968;2023-04-24T05:04:14;2.10;;;1.10;;
6821;SDS011;3449;48.728;8.968;2023-04-24T05:06:42;1.07;;;1.00;;
6821;SDS011;3449;48.728;8.968;2023-04-24T05:09:09;0.70;;;0.70;;
6821;SDS011;3449;48.728;8.968;2023-04-24T05:11:36;1.33;;;1.10;;
6821;SDS011;3449;48.728;8.968;2023-04-24T05:14:03;1.23;;;0.90;;
6821;SDS011;3449;48.728;8.968;2023-04-24T05:16:30;1.00;;;0.90;;
6821;SDS011;3449;48.728;8.968;2023-04-24T05:18:57;1.10;;;1.10;;
6821;SDS011;3449;48.728;8.968;2023-04-24T05:21:24;0.77;;;0.77;;
6821;SDS011;3449;48.728;8.968;2023-04-24T05:23:53;2.10;;;1.13;;
6821;SDS011;3449;48.728;8.968;2023-04-24T05:26:20;0.70;;;0.70;;
6821;SDS011;3449;48.728;8.968;2023-04-24T05:28:47;1.30;;;1.30;;
6821;SDS011;3449;48.728;8.968;2023-04-24T05:31:14;1.13;;;1.10;;
6821;SDS011;3449;48.728;8.968;2023-04-24T05:33:42;2.10;;;0.90;;
6821;SDS011;3449;48.728;8.968;2023-04-24T05:36:09;1.27;;;1.10;;
6821;SDS011;3449;48.728;8.968;2023-04-24T05:38:36;1.47;;;1.37;;
6821;SDS011;3449;48.728;8.968;2023-04-24T05:41:04;1.40;;;1.30;;
6821;SDS011;3449;48.728;8.968;2023-04-24T05:43:31;6.83;;;1.60;;
6821;SDS011;3449;48.728;8.968;2023-04-24T05:45:58;1.33;;;1.23;;
6821;SDS011;3449;48.728;8.968;2023-04-24T05:48:25;2.10;;;1.70;;
6821;SDS011;3449;48.728;8.968;2023-04-24T05:50:52;2.33;;;2.03;;
6821;SDS011;3449;48.728;8.968;2023-04-24T05:53:19;3.97;;;2.03;;
6821;SDS011;3449;48.728;8.968;2023-04-24T05:55:46;2.20;;;2.00;;
6821;SDS011;3449;48.728;8.968;2023-04-24T05:58:15;3.50;;;1.67;;
6821;SDS011;3449;48.728;8.968;2023-04-24T06:00:42;2.30;;;2.10;;
6821;SDS011;3449;48.728;8.968;2023-04-24T06:03:11;4.60;;;1.97;;
6821;SDS011;3449;48.728;8.968;2023-04-24T06:05:38;2.57;;;1.23;;
6821;SDS011;3449;48.728;8.968;2023-04-24T06:08:05;2.13;;;1.77;;
6821;SDS011;3449;48.728;8.968;2023-04-24T06:10:32;1.90;;;1.70;;
6821;SDS011;3449;48.728;8.968;2023-04-24T06:12:58;1.70;;;1.57;;
6821;SDS011;3449;48.728;8.968;2023-04-24T06:15:28;3.23;;;1.77;;
6821;SDS011;3449;48.728;8.968;2023-04-24T06:17:56;1.53;;;1.43;;
6821;SDS011;3449;48.728;8.968;2023-04-24T06:20:23;2.03;;;1.50;;
6821;SDS011;3449;48.728;8.968;2023-04-24T06:22:50;2.03;;;1.80;;
6821;SDS011;3449;48.728;8.968;2023-04-24T06:25:17;2.07;;;1.87;;
6821;SDS011;3449;48.728;8.968;2023-04-24T06:27:45;3.63;;;1.70;;
6821;SDS011;3449;48.728;8.968;2023-04-24T06:30:12;1.33;;;1.23;;
6821;SDS011;3449;48.728;8.968;2023-04-24T06:32:40;1.40;;;1.30;;
6821;SDS011;3449;48.728;8.968;2023-04-24T06:35:07;1.63;;;1.50;;
6821;SDS011;3449;48.728;8.968;2023-04-24T06:37:35;1.73;;;1.30;;
6821;SDS011;3449;48.728;8.968;2023-04-24T06:40:02;2.73;;;1.47;;
6821;SDS011;3449;48.728;8.968;2023-04-24T06:42:29;1.40;;;1.30;;
6821;SDS011;3449;48.728;8.968;2023-04-24T06:44:56;1.77;;;1.47;;
6821;SDS011;3449;48.728;8.968;2023-04-24T06:47:23;2.20;;;1.43;;
6821;SDS011;3449;48.728;8.968;2023-04-24T06:49:51;1.37;;;1.20;;
6821;SDS011;3449;48.728;8.968;2023-04-24T06:52:18;1.97;;;1.50;;
6821;SDS011;3449;48.728;8.968;2023-04-24T06:54:45;1.57;;;1.30;;
6821;SDS011;3449;48.728;8.968;2023-04-24T06:57:12;2.00;;;1.20;;
6821;SDS011;3449;48.728;8.968;2023-04-24T06:59:41;2.60;;;1.90;;
6821;SDS011;3449;48.728;8.968;2023-04-24T07:02:08;1.40;;;1.30;;
6821;SDS011;3449;48.728;8.968;2023-04-24T07:04:35;2.30;;;1.27;;
6821;SDS011;3449;48.728;8.968;2023-04-24T07:07:03;1.27;;;1.13;;
6821;SDS011;3449;48.728;8.968;2023-04-24T07:09:31;1.70;;;1.20;;
6821;SDS011;3449;48.728;8.968;2023-04-24T07:12:00;2.20;;;1.43;;
6821;SDS011;3449;48.728;8.968;2023-04-24T07:14:27;4.40;;;1.50;;
6821;SDS011;3449;48.728;8.968;2023-04-24T07:16:54;1.07;;;1.07;;
6821;SDS011;3449;48.728;8.968;2023-04-24T07:19:22;1.67;;;1.40;;
6821;SDS011;3449;48.728;8.968;2023-04-24T07:21:48;4.97;;;2.23;;
6821;SDS011;3449;48.728;8.968;2023-04-24T07:24:17;1.13;;;1.13;;
6821;SDS011;3449;48.728;8.968;2023-04-24T07:26:44;1.77;;;1.10;;
6821;SDS011;3449;48.728;8.968;2023-04-24T07:29:11;1.27;;;1.20;;
6821;SDS011;3449;48.728;8.968;2023-04-24T07:31:38;1.77;;;1.17;;
6821;SDS011;3449;48.728;8.968;2023-04-24T07:34:06;6.03;;;1.17;;
6821;SDS011;3449;48.728;8.968;2023-04-24T07:36:33;1.37;;;1.27;;
6821;SDS011;3449;48.728;8.968;2023-04-24T07:39:00;2.30;;;1.03;;
6821;SDS011;3449;48.728;8.968;2023-04-24T07:41:28;2.17;;;0.90;;
6821;SDS011;3449;48.728;8.968;2023-04-24T07:43:55;2.30;;;1.10;;
6821;SDS011;3449;48.728;8.968;2023-04-24T07:46:22;2.33;;;1.07;;
6821;SDS011;3449;48.728;8.968;2023-04-24T07:48:49;2.30;;;1.10;;
6821;SDS011;3449;48.728;8.968;2023-04-24T07:51:16;1.13;;;1.10;;
6821;SDS011;3449;48.728;8.968;2023-04-24T07:53:43;0.87;;;0.70;;
6821;SDS011;3449;48.728;8.968;2023-04-24T07:56:10;1.60;;;1.23;;
6821;SDS011;3449;48.728;8.968;2023-04-24T07:58:38;2.10;;;1.00;;
6821;SDS011;3449;48.728;8.968;2023-04-24T08:01:06;1.63;;;1.17;;
6821;SDS011;3449;48.728;8.968;2023-04-24T08:03:33;2.47;;;1.23;;
6821;SDS011;3449;48.728;8.968;2023-04-24T08:05:59;1.17;;;1.00;;
6821;SDS011;3449;48.728;8.968;2023-04-24T08:08:27;2.20;;;1.10;;
6821;SDS011;3449;48.728;8.968;2023-04-24T08:10:54;1.23;;;1.13;;
6821;SDS011;3449;48.728;8.968;2023-04-24T08:13:21;4.80;;;0.93;;
6821;SDS011;3449;48.728;8.968;2023-04-24T08:15:49;1.97;;;1.27;;
6821;SDS011;3449;48.728;8.968;2023-04-24T08:18:16;1.13;;;1.03;;
6821;SDS011;3449;48.728;8.968;2023-04-24T08:20:43;2.83;;;1.30;;
6821;SDS011;3449;48.728;8.968;2023-04-24T08:23:10;1.60;;;1.30;;
6821;SDS011;3449;48.728;8.968;2023-04-24T08:25:37;1.57;;;1.07;;
6821;SDS011;3449;48.728;8.968;2023-04-24T08:28:05;1.50;;;1.10;;
6821;SDS011;3449;48.728;8.968;2023-04-24T08:30:32;1.37;;;1.00;;
6821;SDS011;3449;48.728;8.968;2023-04-24T08:33:00;1.70;;;1.33;;
6821;SDS011;3449;48.728;8.968;2023-04-24T08:35:27;1.10;;;1.10;;
6821;SDS011;3449;48.728;8.968;2023-04-24T08:37:54;1.63;;;1.17;;
6821;SDS011;3449;48.728;8.968;2023-04-24T08:40:22;2.40;;;1.10;;
6821;SDS011;3449;48.728;8.968;2023-04-24T08:42:55;2.50;;;0.90;;
6821;SDS011;3449;48.728;8.968;2023-04-24T08:45:22;1.40;;;1.27;;
6821;SDS011;3449;48.728;8.968;2023-04-24T08:47:51;1.67;;;1.20;;
6821;SDS011;3449;48.728;8.968;2023-04-24T08:50:20;1.20;;;1.10;;
6821;SDS011;3449;48.728;8.968;2023-04-24T08:52:49;2.30;;;1.50;;
6821;SDS011;3449;48.728;8.968;2023-04-24T08:55:18;3.97;;;1.73;;
6821;SDS011;3449;48.728;8.968;2023-04-24T08:57:45;0.87;;;0.87;;
6821;SDS011;3449;48.728;8.968;2023-04-24T09:00:17;1.60;;;1.50;;
6821;SDS011;3449;48.728;8.968;2023-04-24T09:02:45;3.80;;;1.10;;
6821;SDS011;3449;48.728;8.968;2023-04-24T09:05:14;4.20;;;1.50;;
6821;SDS011;3449;48.728;8.968;2023-04-24T09:07:45;1.43;;;1.33;;
6821;SDS011;3449;48.728;8.968;2023-04-24T09:10:15;0.87;;;0.87;;
6821;SDS011;3449;48.728;8.968;2023-04-24T09:12:42;2.97;;;0.87;;
6821;SDS011;3449;48.728;8.968;2023-04-24T09:15:11;1.07;;;0.97;;
6821;SDS011;3449;48.728;8.968;2023-04-24T09:17:38;1.20;;;1.10;;
6821;SDS011;3449;48.728;8.968;2023-04-24T09:20:05;1.00;;;0.93;;
6821;SDS011;3449;48.728;8.968;2023-04-24T09:22:33;2.37;;;1.10;;
6821;SDS011;3449;48.728;8.968;2023-04-24T09:25:03;1.70;;;1.00;;
6821;SDS011;3449;48.728;8.968;2023-04-24T09:27:32;1.67;;;1.10;;
6821;SDS011;3449;48.728;8.968;2023-04-24T09:29:59;0.80;;;0.80;;
6821;SDS011;3449;48.728;8.968;2023-04-24T09:32:27;1.10;;;1.00;;
6821;SDS011;3449;48.728;8.968;2023-04-24T09:35:08;2.87;;;0.73;;
6821;SDS011;3449;48.728;8.968;2023-04-24T09:37:37;0.90;;;0.80;;
6821;SDS011;3449;48.728;8.968;2023-04-24T09:40:11;0.70;;;0.70;;
6821;SDS011;3449;48.728;8.968;2023-04-24T09:42:46;1.23;;;0.80;;
6821;SDS011;3449;48.728;8.968;2023-04-24T09:45:17;3.37;;;1.20;;
6821;SDS011;3449;48.728;8.968;2023-04-24T09:47:44;0.80;;;0.80;;
6821;SDS011;3449;48.728;8.968;2023-04-24T09:50:12;0.80;;;0.70;;
6821;SDS011;3449;48.728;8.968;2023-04-24T09:52:40;2.00;;;0.80;;
6821;SDS011;3449;48.728;8.968;2023-04-24T09:55:15;2.20;;;0.97;;
6821;SDS011;3449;48.728;8.968;2023-04-24T09:57:47;0.80;;;0.70;;
6821;SDS011;3449;48.728;8.968;2023-04-24T10:00:22;2.87;;;1.00;;
6821;SDS011;3449;48.728;8.968;2023-04-24T10:02:52;2.60;;;1.10;;
6821;SDS011;3449;48.728;8.968;2023-04-24T10:05:26;1.00;;;0.90;;
6821;SDS011;3449;48.728;8.968;2023-04-24T10:07:59;0.97;;;0.77;;
6821;SDS011;3449;48.728;8.968;2023-04-24T10:10:29;1.83;;;0.70;;
6821;SDS011;3449;48.728;8.968;2023-04-24T10:12:57;1.77;;;0.97;;
6821;SDS011;3449;48.728;8.968;2023-04-24T10:15:25;1.57;;;1.30;;
6821;SDS011;3449;48.728;8.968;2023-04-24T10:17:53;4.40;;;1.40;;
6821;SDS011;3449;48.728;8.968;2023-04-24T10:20:21;1.03;;;1.00;;
6821;SDS011;3449;48.728;8.968;2023-04-24T10:22:49;1.30;;;0.97;;
6821;SDS011;3449;48.728;8.968;2023-04-24T10:25:18;1.33;;;0.77;;
6821;SDS011;3449;48.728;8.968;2023-04-24T10:27:47;0.80;;;0.80;;
6821;SDS011;3449;48.728;8.968;2023-04-24T10:30:15;2.30;;;0.80;;
6821;SDS011;3449;48.728;8.968;2023-04-24T10:32:43;0.80;;;0.70;;
6821;SDS011;3449;48.728;8.968;2023-04-24T10:35:11;1.80;;;1.17;;
6821;SDS011;3449;48.728;8.968;2023-04-24T10:37:40;1.23;;;0.80;;
6821;SDS011;3449;48.728;8.968;2023-04-24T10:40:09;2.00;;;1.20;;
6821;SDS011;3449;48.728;8.968;2023-04-24T10:42:39;1.43;;;0.97;;
6821;SDS011;3449;48.728;8.968;2023-04-24T10:45:16;1.00;;;0.97;;
6821;SDS011;3449;48.728;8.968;2023-04-24T10:47:50;6.43;;;0.70;;
6821;SDS011;3449;48.728;8.968;2023-04-24T10:50:18;1.30;;;0.70;;
6821;SDS011;3449;48.728;8.968;2023-04-24T10:52:45;2.17;;;0.97;;
6821;SDS011;3449;48.728;8.968;2023-04-24T10:55:13;0.80;;;0.80;;
6821;SDS011;3449;48.728;8.968;2023-04-24T10:57:47;1.57;;;0.90;;
6821;SDS011;3449;48.728;8.968;2023-04-24T11:00:29;3.47;;;1.17;;
6821;SDS011;3449;48.728;8.968;2023-04-24T11:02:56;1.33;;;0.83;;
6821;SDS011;3449;48.728;8.968;2023-04-24T11:05:49;1.73;;;1.10;;
6821;SDS011;3449;48.728;8.968;2023-04-24T11:08:27;0.90;;;0.60;;
6821;SDS011;3449;48.728;8.968;2023-04-24T11:10:57;1.93;;;1.50;;
6821;SDS011;3449;48.728;8.968;2023-04-24T11:13:27;1.17;;;1.10;;
6821;SDS011;3449;48.728;8.968;2023-04-24T11:16:21;1.20;;;1.10;;
6821;SDS011;3449;48.728;8.968;2023-04-24T11:18:59;2.23;;;1.10;;
6821;SDS011;3449;48.728;8.968;2023-04-24T11:21:30;1.00;;;1.00;;
6821;SDS011;3449;48.728;8.968;2023-04-24T11:23:58;1.03;;;0.93;;
6821;SDS011;3449;48.728;8.968;2023-04-24T11:26:25;2.90;;;0.90;;
6821;SDS011;3449;48.728;8.968;2023-04-24T11:29:05;0.80;;;0.80;;
6821;SDS011;3449;48.728;8.968;2023-04-24T11:31:35;2.73;;;1.10;;
6821;SDS011;3449;48.728;8.968;2023-04-24T11:34:06;1.00;;;0.90;;
6821;SDS011;3449;48.728;8.968;2023-04-24T11:36:34;1.30;;;1.20;;
6821;SDS011;3449;48.728;8.968;2023-04-24T11:39:02;0.90;;;0.90;;
6821;SDS011;3449;48.728;8.968;2023-04-24T11:41:29;1.67;;;1.40;;
6821;SDS011;3449;48.728;8.968;2023-04-24T11:43:56;3.03;;;1.40;;
6821;SDS011;3449;48.728;8.968;2023-04-24T11:46:26;3.50;;;1.00;;
6821;SDS011;3449;48.728;8.968;2023-04-24T11:48:56;0.80;;;0.73;;
6821;SDS011;3449;48.728;8.968;2023-04-24T11:51:22;1.70;;;1.00;;
6821;SDS011;3449;48.728;8.968;2023-04-24T11:53:50;1.00;;;1.00;;
6821;SDS011;3449;48.728;8.968;2023-04-24T11:56:17;0.93;;;0.93;;
6821;SDS011;3449;48.728;8.968;2023-04-24T11:58:45;1.73;;;1.50;;
6821;SDS011;3449;48.728;8.968;2023-04-24T12:01:12;3.10;;;1.10;;
6821;SDS011;3449;48.728;8.968;2023-04-24T12:03:40;0.80;;;0.80;;
6821;SDS011;3449;48.728;8.968;2023-04-24T12:06:11;1.10;;;1.00;;
6821;SDS011;3449;48.728;8.968;2023-04-24T12:08:38;2.30;;;1.40;;
6821;SDS011;3449;48.728;8.968;2023-04-24T12:11:06;1.23;;;1.13;;
6821;SDS011;3449;48.728;8.968;2023-04-24T12:13:33;2.53;;;1.07;;
6821;SDS011;3449;48.728;8.968;2023-04-24T12:16:03;1.57;;;1.30;;
6821;SDS011;3449;48.728;8.968;2023-04-24T12:18:30;2.13;;;1.03;;
6821;SDS011;3449;48.728;8.968;2023-04-24T12:23:44;0.90;;;0.90;;
6821;SDS011;3449;48.728;8.968;2023-04-24T12:26:11;1.10;;;0.90;;
6821;SDS011;3449;48.728;8.968;2023-04-24T12:28:38;1.00;;;0.80;;
6821;SDS011;3449;48.728;8.968;2023-04-24T12:31:06;0.90;;;0.90;;
6821;SDS011;3449;48.728;8.968;2023-04-24T12:33:34;2.33;;;1.33;;
6821;SDS011;3449;48.728;8.968;2023-04-24T12:36:01;1.87;;;1.47;;
6821;SDS011;3449;48.728;8.968;2023-04-24T12:38:30;0.80;;;0.80;;
6821;SDS011;3449;48.728;8.968;2023-04-24T12:41:05;0.97;;;0.97;;
6821;SDS011;3449;48.728;8.968;2023-04-24T12:43:33;1.70;;;0.73;;
6821;SDS011;3449;48.728;8.968;2023-04-24T12:46:00;0.60;;;0.60;;
6821;SDS011;3449;48.728;8.968;2023-04-24T12:48:27;2.13;;;0.93;;
6821;SDS011;3449;48.728;8.968;2023-04-24T12:50:54;1.37;;;1.00;;
6821;SDS011;3449;48.728;8.968;2023-04-24T12:53:25;0.80;;;0.80;;
6821;SDS011;3449;48.728;8.968;2023-04-24T12:55:55;0.83;;;0.83;;
6821;SDS011;3449;48.728;8.968;2023-04-24T12:58:23;1.03;;;0.90;;
6821;SDS011;3449;48.728;8.968;2023-04-24T13:00:50;1.17;;;1.07;;
6821;SDS011;3449;48.728;8.968;2023-04-24T13:03:17;1.13;;;1.13;;
6821;SDS011;3449;48.728;8.968;2023-04-24T13:05:44;2.10;;;1.10;;
6821;SDS011;3449;48.728;8.968;2023-04-24T13:08:11;1.30;;;1.20;;
6821;SDS011;3449;48.728;8.968;2023-04-24T13:10:39;1.57;;;1.47;;
6821;SDS011;3449;48.728;8.968;2023-04-24T13:13:07;1.10;;;1.00;;
6821;SDS011;3449;48.728;8.968;2023-04-24T13:15:34;2.17;;;1.70;;
6821;SDS011;3449;48.728;8.968;2023-04-24T13:18:01;1.50;;;0.83;;
6821;SDS011;3449;48.728;8.968;2023-04-24T13:20:28;1.80;;;1.70;;
6821;SDS011;3449;48.728;8.968;2023-04-24T13:22:55;1.30;;;1.20;;
6821;SDS011;3449;48.728;8.968;2023-04-24T13:25:22;1.40;;;1.30;;
6821;SDS011;3449;48.728;8.968;2023-04-24T13:27:50;1.20;;;1.10;;
6821;SDS011;3449;48.728;8.968;2023-04-24T13:30:18;1.07;;;0.87;;
6821;SDS011;3449;48.728;8.968;2023-04-24T13:32:45;1.63;;;0.90;;
6821;SDS011;3449;48.728;8.968;2023-04-24T13:35:12;1.43;;;1.30;;
6821;SDS011;3449;48.728;8.968;2023-04-24T13:37:39;1.43;;;1.00;;
6821;SDS011;3449;48.728;8.968;2023-04-24T13:40:06;1.27;;;0.90;;
6821;SDS011;3449;48.728;8.968;2023-04-24T13:42:34;1.13;;;1.03;;
6821;SDS011;3449;48.728;8.968;2023-04-24T13:45:01;1.10;;;1.00;;
6821;SDS011;3449;48.728;8.968;2023-04-24T13:47:29;1.77;;;1.20;;
6821;SDS011;3449;48.728;8.968;2023-04-24T13:49:56;1.90;;;1.17;;
6821;SDS011;3449;48.728;8.968;2023-04-24T13:52:23;1.00;;;1.00;;
6821;SDS011;3449;48.728;8.968;2023-04-24T13:54:50;1.17;;;1.17;;
6821;SDS011;3449;48.728;8.968;2023-04-24T13:57:17;1.30;;;1.20;;
6821;SDS011;3449;48.728;8.968;2023-04-24T13:59:44;1.47;;;1.37;;
6821;SDS011;3449;48.728;8.968;2023-04-24T14:02:11;4.77;;;1.40;;
6821;SDS011;3449;48.728;8.968;2023-04-24T14:04:39;1.23;;;1.13;;
6821;SDS011;3449;48.728;8.968;2023-04-24T14:07:06;2.50;;;1.30;;
6821;SDS011;3449;48.728;8.968;2023-04-24T14:09:34;1.43;;;1.10;;
6821;SDS011;3449;48.728;8.968;2023-04-24T14:12:00;1.20;;;1.10;;
6821;SDS011;3449;48.728;8.968;2023-04-24T14:14:28;1.17;;;1.07;;
6821;SDS011;3449;48.728;8.968;2023-04-24T14:16:56;1.40;;;1.30;;
6821;SDS011;3449;48.728;8.968;2023-04-24T14:19:23;1.37;;;1.27;;
6821;SDS011;3449;48.728;8.968;2023-04-24T14:21:51;2.50;;;1.37;;
6821;SDS011;3449;48.728;8.968;2023-04-24T14:24:18;1.33;;;1.23;;
6821;SDS011;3449;48.728;8.968;2023-04-24T14:26:45;1.40;;;1.30;;
6821;SDS011;3449;48.728;8.968;2023-04-24T14:29:12;2.03;;;1.83;;
6821;SDS011;3449;48.728;8.968;2023-04-24T14:31:39;1.63;;;1.53;;
6821;SDS011;3449;48.728;8.968;2023-04-24T14:34:06;1.50;;;1.40;;
6821;SDS011;3449;48.728;8.968;2023-04-24T14:36:33;2.20;;;1.37;;
6821;SDS011;3449;48.728;8.968;2023-04-24T14:39:01;1.83;;;1.73;;
6821;SDS011;3449;48.728;8.968;2023-04-24T14:41:31;2.20;;;1.83;;
6821;SDS011;3449;48.728;8.968;2023-04-24T14:44:00;1.43;;;1.33;;
6821;SDS011;3449;48.728;8.968;2023-04-24T14:46:27;2.50;;;1.53;;
6821;SDS011;3449;48.728;8.968;2023-04-24T14:48:55;2.03;;;1.30;;
6821;SDS011;3449;48.728;8.968;2023-04-24T14:51:22;1.63;;;1.43;;
6821;SDS011;3449;48.728;8.968;2023-04-24T14:53:49;1.80;;;1.10;;
6821;SDS011;3449;48.728;8.968;2023-04-24T14:56:18;2.57;;;1.10;;
6821;SDS011;3449;48.728;8.968;2023-04-24T14:58:45;1.40;;;1.30;;
6821;SDS011;3449;48.728;8.968;2023-04-24T15:01:11;2.43;;;1.70;;
6821;SDS011;3449;48.728;8.968;2023-04-24T15:03:38;1.60;;;1.50;;
6821;SDS011;3449;48.728;8.968;2023-04-24T15:06:05;1.43;;;1.33;;
6821;SDS011;3449;48.728;8.968;2023-04-24T15:08:32;1.47;;;1.37;;
6821;SDS011;3449;48.728;8.968;2023-04-24T15:10:59;4.90;;;1.43;;
6821;SDS011;3449;48.728;8.968;2023-04-24T15:13:27;1.73;;;1.63;;
6821;SDS011;3449;48.728;8.968;2023-04-24T15:15:54;1.67;;;1.57;;
6821;SDS011;3449;48.728;8.968;2023-04-24T15:18:21;1.70;;;1.50;;
6821;SDS011;3449;48.728;8.968;2023-04-24T15:20:48;8.37;;;2.03;;
6821;SDS011;3449;48.728;8.968;2023-04-24T15:23:15;1.63;;;1.53;;